Time;durP1;ratioP1;P1;durP2;ratioP2;P2;SDS_P1;SDS_P2;PMS_P1;PMS_P2;Temp;Humidity;BMP_temperature;BMP_pressure;BME280_temperature;BME280_humidity;BME280_pressure;Samples;Min_cycle;Max_cycle;Signal;HPM_P1;HPM_P2
2021/11/26 00:01:10;;;;;;;83.95;42.83;;;;;;;2.11;72.97;96172.85;1733322;81;27408;-84
2021/11/26 00:03:37;;;;;;;82.67;42.75;;;;;;;2.11;72.93;96175.52;1733243;81;25743;-84
2021/11/26 00:06:05;;;;;;;83.82;45.88;;;;;;;2.13;72.89;96177.48;1733289;81;25748;-84
2021/11/26 00:08:31;;;;;;;89.55;45.03;;;;;;;2.15;72.85;96171.47;1733338;81;26403;-84
2021/11/26 00:10:58;;;;;;;95.55;46.35;;;;;;;2.15;72.80;96166.15;1733296;81;26588;-85
2021/11/26 00:13:31;;;;;;;92.35;45.80;;;;;;;2.10;72.79;96161.88;1733285;81;28428;-84
2021/11/26 00:15:57;;;;;;;113.62;51.90;;;;;;;2.11;72.85;96159.03;1736436;80;25871;-84
2021/11/26 00:18:21;;;;;;;113.35;51.88;;;;;;;2.14;72.83;96151.19;1753882;81;25743;-84
2021/11/26 00:20:48;;;;;;;117.35;52.27;;;;;;;2.18;72.81;96161.25;1754516;81;26020;-84
2021/11/26 00:23:16;;;;;;;107.22;51.75;;;;;;;2.25;72.80;96158.67;1754542;81;25700;-84
2021/11/26 00:25:42;;;;;;;103.53;50.73;;;;;;;2.24;72.71;96161.02;1754467;80;27424;-84
2021/11/26 00:28:09;;;;;;;90.28;47.15;;;;;;;2.22;72.72;96157.71;1754235;80;25684;-84
2021/11/26 00:30:35;;;;;;;93.40;48.60;;;;;;;2.21;72.75;96160.55;1754587;80;25666;-84
2021/11/26 00:33:02;;;;;;;90.47;48.98;;;;;;;2.19;72.78;96150.09;1754633;80;26842;-84
2021/11/26 00:35:29;;;;;;;102.95;52.75;;;;;;;2.21;72.83;96157.39;1754534;80;25898;-84
2021/11/26 00:37:56;;;;;;;101.58;50.73;;;;;;;2.20;72.80;96154.91;1754306;80;26870;-84
2021/11/26 00:40:22;;;;;;;93.40;47.20;;;;;;;2.22;72.85;96157.71;1754387;81;25709;-84
2021/11/26 00:42:49;;;;;;;87.70;46.28;;;;;;;2.25;72.91;96148.02;1754390;80;25732;-83
2021/11/26 00:45:16;;;;;;;90.90;45.45;;;;;;;2.27;72.81;96153.98;1754580;81;26686;-84
2021/11/26 00:47:45;;;;;;;92.10;43.95;;;;;;;2.27;72.83;96147.33;1754290;81;25748;-84
2021/11/26 00:50:15;;;;;;;86.02;42.25;;;;;;;2.26;72.76;96136.86;1754592;81;27351;-84
2021/11/26 00:52:42;;;;;;;88.82;42.53;;;;;;;2.27;72.77;96143.33;1754356;80;25743;-84
2021/11/26 00:55:10;;;;;;;91.55;47.20;;;;;;;2.30;72.84;96144.77;1754462;81;25742;-85
2021/11/26 00:57:36;;;;;;;108.52;51.30;;;;;;;2.25;72.76;96136.55;1754467;80;26210;-84
2021/11/26 01:00:08;;;;;;;94.75;48.33;;;;;;;2.21;72.77;96138.75;1754533;80;25664;-84
2021/11/26 01:02:35;;;;;;;97.43;46.03;;;;;;;2.20;72.79;96131.77;1754776;80;27359;-84
2021/11/26 01:05:01;;;;;;;86.05;44.73;;;;;;;2.21;72.79;96124.61;1754364;80;25831;-85
2021/11/26 01:07:28;;;;;;;88.90;45.60;;;;;;;2.21;72.86;96124.61;1754419;80;25742;-85
2021/11/26 01:09:55;;;;;;;77.82;42.03;;;;;;;2.21;72.78;96124.11;1754498;81;26035;-85
2021/11/26 01:12:21;;;;;;;78.40;40.35;;;;;;;2.21;72.83;96124.11;1754424;80;25735;-85
2021/11/26 01:14:48;;;;;;;78.47;41.20;;;;;;;2.21;72.82;96126.77;1754506;80;27473;-85
2021/11/26 01:17:15;;;;;;;75.97;41.08;;;;;;;2.24;72.85;96119.73;1751971;79;25759;-85
2021/11/26 01:19:41;;;;;;;77.15;41.18;;;;;;;2.21;72.86;96120.62;1794813;78;25880;-85
2021/11/26 01:22:08;;;;;;;77.10;40.67;;;;;;;2.21;72.96;96118.78;1778393;79;26059;-84
2021/11/26 01:24:35;;;;;;;80.05;41.53;;;;;;;2.26;72.98;96115.05;1791626;78;25672;-85
2021/11/26 01:27:06;;;;;;;83.80;42.20;;;;;;;2.29;72.99;96104.53;1791721;78;27383;-85
2021/11/26 01:29:29;;;;;;;84.20;42.58;;;;;;;2.25;72.94;96109.91;1777666;79;25659;-85
2021/11/26 01:31:56;;;;;;;79.90;41.02;;;;;;;2.25;73.00;96107.25;1791782;78;25208;-85
2021/11/26 01:34:22;;;;;;;79.53;42.98;;;;;;;2.21;72.97;96098.81;1789638;79;25914;-85
2021/11/26 01:36:50;;;;;;;87.35;43.38;;;;;;;2.21;73.04;96095.33;1791646;78;25666;-85
2021/11/26 01:39:16;;;;;;;87.15;44.58;;;;;;;2.23;73.09;96092.80;1791645;78;28310;-84
2021/11/26 01:41:43;;;;;;;83.92;42.08;;;;;;;2.22;73.08;96089.81;1791644;78;26448;-84
2021/11/26 01:44:11;;;;;;;84.97;40.40;;;;;;;2.24;73.10;96095.78;1791911;79;25745;-85
2021/11/26 01:46:42;;;;;;;71.72;38.60;;;;;;;2.27;73.18;96091.92;1791649;80;25982;-84
2021/11/26 01:49:08;;;;;;;80.38;40.28;;;;;;;2.28;73.17;96086.41;1818933;77;25710;-85
2021/11/26 01:51:35;;;;;;;80.62;39.73;;;;;;;2.29;73.08;96082.73;1819752;78;28230;-84
2021/11/26 01:54:03;;;;;;;77.45;36.83;;;;;;;2.30;73.09;96072.88;1819672;77;25755;-84
2021/11/26 01:56:30;;;;;;;70.72;34.80;;;;;;;2.29;73.10;96066.75;1819868;77;25681;-85
2021/11/26 01:58:57;;;;;;;73.67;36.15;;;;;;;2.27;73.10;96073.28;1819851;77;25722;-84
2021/11/26 02:01:25;;;;;;;70.00;35.63;;;;;;;2.27;73.17;96079.42;1819923;77;25831;-85
2021/11/26 02:03:52;;;;;;;69.65;35.50;;;;;;;2.32;73.19;96091.64;1819797;77;27404;-84
2021/11/26 02:06:19;;;;;;;68.50;34.83;;;;;;;2.31;73.22;96085.99;1819716;77;26064;-85
2021/11/26 02:08:48;;;;;;;71.05;36.20;;;;;;;2.29;73.26;96079.24;1819764;78;25913;-85
2021/11/26 02:11:15;;;;;;;66.77;35.40;;;;;;;2.27;73.26;96080.76;1819820;77;26827;-85
2021/11/26 02:13:42;;;;;;;64.90;34.18;;;;;;;2.28;73.38;96087.73;1819818;77;25258;-84
2021/11/26 02:16:09;;;;;;;65.40;34.83;;;;;;;2.31;73.48;96080.67;1777960;79;27478;-84
2021/11/26 02:18:36;;;;;;;67.60;34.35;;;;;;;2.29;73.42;96080.06;1759256;81;25790;-84
2021/11/26 02:21:03;;;;;;;65.67;35.50;;;;;;;2.29;73.46;96074.73;1761674;80;25672;-84
2021/11/26 02:23:30;;;;;;;63.50;33.48;;;;;;;2.32;73.49;96073.00;1761667;80;26003;-84
2021/11/26 02:25:57;;;;;;;67.70;35.73;;;;;;;2.33;73.50;96074.65;1761815;80;25704;-84
2021/11/26 02:28:25;;;;;;;75.85;35.60;;;;;;;2.34;73.47;96066.98;1761762;80;27438;-85
2021/11/26 02:30:51;;;;;;;69.32;36.38;;;;;;;2.36;73.40;96066.79;1761544;80;25913;-85
2021/11/26 02:33:22;;;;;;;69.60;35.60;;;;;;;2.35;73.44;96060.64;1761664;81;25725;-84
2021/11/26 02:35:51;;;;;;;65.30;34.90;;;;;;;2.34;73.45;96054.17;1761691;80;25991;-84
2021/11/26 02:38:20;;;;;;;67.35;34.30;;;;;;;2.33;73.46;96049.35;1759174;80;25768;-84
2021/11/26 02:40:47;;;;;;;65.72;35.05;;;;;;;2.35;73.52;96048.66;1754441;80;28211;-84
2021/11/26 02:43:16;;;;;;;64.75;34.53;;;;;;;2.37;73.47;96042.63;1759518;81;25766;-84
2021/11/26 02:45:45;;;;;;;68.25;34.88;;;;;;;2.38;73.46;96026.97;1759510;81;25775;-84
2021/11/26 02:48:14;;;;;;;65.00;34.33;;;;;;;2.40;73.47;96038.77;1759564;81;25997;-84
2021/11/26 02:50:43;;;;;;;60.33;33.75;;;;;;;2.43;73.50;96033.03;1759603;80;26325;-84
2021/11/26 02:53:10;;;;;;;58.38;32.90;;;;;;;2.43;73.54;96028.53;1759760;81;27430;-84
2021/11/26 02:55:38;;;;;;;62.40;32.58;;;;;;;2.41;73.56;96029.26;1761959;81;26354;-84
2021/11/26 02:58:06;;;;;;;60.98;33.55;;;;;;;2.41;73.57;96025.27;1761950;81;25687;-83
2021/11/26 03:00:35;;;;;;;53.40;31.37;;;;;;;2.42;73.65;96021.55;1740473;81;26204;-84
2021/11/26 03:03:02;;;;;;;61.25;32.48;;;;;;;2.40;73.67;96019.62;1743354;81;25260;-83
2021/11/26 03:05:28;;;;;;;61.23;31.62;;;;;;;2.40;73.71;96018.28;1759830;81;27365;-83
2021/11/26 03:07:55;;;;;;;62.70;32.05;;;;;;;2.44;73.80;96018.70;1761952;80;25763;-84
2021/11/26 03:10:23;;;;;;;58.63;30.57;;;;;;;2.47;73.82;96021.80;1761917;81;25480;-83
2021/11/26 03:13:00;;;;;;;56.85;31.35;;;;;;;2.48;73.76;96006.14;1761885;81;26633;-84
2021/11/26 03:15:29;;;;;;;59.10;30.48;;;;;;;2.47;73.74;95995.17;1762078;81;25858;-84
2021/11/26 03:17:55;;;;;;;57.03;29.67;;;;;;;2.47;73.76;95998.34;1761662;80;27559;-83
2021/11/26 03:20:25;;;;;;;60.03;29.25;;;;;;;2.49;73.82;95997.14;1761577;81;25807;-83
2021/11/26 03:22:52;;;;;;;61.50;29.82;;;;;;;2.49;73.78;95986.48;1762022;80;25707;-83
2021/11/26 03:25:19;;;;;;;59.85;29.82;;;;;;;2.48;73.73;95983.50;1761851;80;25989;-84
2021/11/26 03:27:46;;;;;;;51.85;28.05;;;;;;;2.49;73.73;95973.16;1761939;81;25738;-84
2021/11/26 03:30:18;;;;;;;54.30;29.82;;;;;;;2.51;73.74;95980.45;1761887;81;27414;-83
2021/11/26 03:32:45;;;;;;;54.83;28.93;;;;;;;2.52;73.81;95978.11;1738272;80;25795;-84
2021/11/26 03:35:14;;;;;;;52.08;28.25;;;;;;;2.57;73.91;95977.50;1762041;80;25732;-84
2021/11/26 03:37:40;;;;;;;50.85;27.58;;;;;;;2.61;73.86;95977.94;1761935;80;26306;-84
2021/11/26 03:40:10;;;;;;;54.20;28.27;;;;;;;2.63;73.81;95979.91;1761933;80;25246;-84
2021/11/26 03:42:37;;;;;;;52.03;28.15;;;;;;;2.67;73.77;95981.95;1761915;80;27420;-84
2021/11/26 03:45:07;;;;;;;51.65;28.62;;;;;;;2.66;73.81;95979.48;1761897;80;25234;-84
2021/11/26 03:47:33;;;;;;;53.52;29.15;;;;;;;2.64;73.80;95973.56;1762017;80;25735;-84
2021/11/26 03:50:00;;;;;;;52.23;28.77;;;;;;;2.62;73.81;95958.27;1761990;80;26624;-84
2021/11/26 03:52:26;;;;;;;56.58;31.23;;;;;;;2.63;73.85;95958.59;1761940;80;25835;-84
2021/11/26 03:54:53;;;;;;;53.25;28.95;;;;;;;2.64;73.85;95958.91;1761830;80;28081;-84
2021/11/26 03:57:20;;;;;;;55.83;29.90;;;;;;;2.63;73.88;95957.26;1761571;81;25787;-84
2021/11/26 03:59:47;;;;;;;56.02;30.62;;;;;;;2.59;73.89;95952.83;1762105;81;25269;-84
2021/11/26 04:02:13;;;;;;;52.78;29.12;;;;;;;2.59;73.93;95949.34;1761947;80;25982;-84
2021/11/26 04:04:40;;;;;;;60.17;31.02;;;;;;;2.61;73.98;95943.31;1761853;80;25698;-84
2021/11/26 04:07:06;;;;;;;57.43;30.52;;;;;;;2.64;74.03;95942.41;1761687;80;28231;-83
2021/11/26 04:09:33;;;;;;;55.55;29.15;;;;;;;2.68;73.97;95938.82;1761744;80;25847;-84
2021/11/26 04:12:00;;;;;;;56.15;30.30;;;;;;;2.67;73.96;95942.50;1761751;80;25816;-84
2021/11/26 04:14:27;;;;;;;54.83;30.27;;;;;;;2.69;74.01;95936.47;1761796;80;25970;-84
2021/11/26 04:16:53;;;;;;;58.83;29.90;;;;;;;2.69;73.99;95926.64;1744503;79;25700;-84
2021/11/26 04:19:20;;;;;;;52.15;28.07;;;;;;;2.70;74.04;95914.14;1820015;77;27382;-83
2021/11/26 04:21:47;;;;;;;56.33;29.25;;;;;;;2.71;74.09;95907.80;1819665;77;25700;-84
2021/11/26 04:24:13;;;;;;;60.25;29.18;;;;;;;2.71;74.14;95906.46;1819821;77;25724;-84
2021/11/26 04:26:40;;;;;;;58.40;31.55;;;;;;;2.75;74.20;95909.05;1819881;77;25770;-84
2021/11/26 04:29:06;;;;;;;63.10;31.02;;;;;;;2.78;74.19;95917.45;1819752;77;25673;-84
2021/11/26 04:31:33;;;;;;;57.67;32.17;;;;;;;2.79;74.13;95911.61;1819945;77;28230;-84
2021/11/26 04:33:59;;;;;;;59.00;33.23;;;;;;;2.77;74.19;95908.34;1819795;77;26224;-84
2021/11/26 04:36:26;;;;;;;58.78;31.68;;;;;;;2.78;74.25;95908.63;1819884;77;26385;-84
2021/11/26 04:38:52;;;;;;;56.73;31.90;;;;;;;2.77;74.37;95905.17;1819790;77;26035;-84
2021/11/26 04:41:19;;;;;;;61.48;32.15;;;;;;;2.81;74.33;95903.73;1819852;77;25652;-84
2021/11/26 04:43:45;;;;;;;58.75;29.90;;;;;;;2.83;74.34;95891.55;1819917;77;27303;-84
2021/11/26 04:46:12;;;;;;;59.18;30.65;;;;;;;2.81;74.38;95889.58;1819829;77;25673;-84
2021/11/26 04:48:38;;;;;;;51.63;29.45;;;;;;;2.80;74.38;95885.27;1819736;77;25234;-84
2021/11/26 04:51:05;;;;;;;54.88;29.23;;;;;;;2.81;74.47;95877.08;1819902;77;26383;-84
2021/11/26 04:53:32;;;;;;;53.95;29.87;;;;;;;2.85;74.48;95885.51;1750097;80;25760;-84
2021/11/26 04:55:58;;;;;;;50.28;27.87;;;;;;;2.84;74.46;95884.69;1791739;78;27418;-85
2021/11/26 04:58:25;;;;;;;53.28;28.75;;;;;;;2.85;74.55;95882.84;1791564;78;25666;-84
2021/11/26 05:00:52;;;;;;;51.63;28.92;;;;;;;2.78;74.59;95868.15;1791857;80;25754;-84
2021/11/26 05:03:18;;;;;;;56.92;29.92;;;;;;;2.77;74.68;95876.38;1791732;78;26029;-84
2021/11/26 05:05:45;;;;;;;51.05;27.55;;;;;;;2.76;74.72;95876.05;1791845;78;25879;-85
2021/11/26 05:08:15;;;;;;;53.42;29.63;;;;;;;2.77;74.73;95875.86;1791716;78;27398;-83
2021/11/26 05:10:39;;;;;;;56.08;29.67;;;;;;;2.76;74.78;95873.39;1777830;79;25283;-84
2021/11/26 05:13:08;;;;;;;57.90;31.33;;;;;;;2.80;74.86;95878.61;1791713;78;26341;-85
2021/11/26 05:15:35;;;;;;;60.58;33.85;;;;;;;2.77;74.81;95869.20;1791775;78;26002;-84
2021/11/26 05:18:04;;;;;;;58.92;33.67;;;;;;;2.78;74.89;95867.33;1791687;78;25765;-84
2021/11/26 05:20:32;;;;;;;65.47;36.40;;;;;;;2.82;74.92;95855.25;1791330;78;27446;-85
2021/11/26 05:22:59;;;;;;;68.62;37.75;;;;;;;2.87;74.95;95859.48;1791635;78;25570;-84
2021/11/26 05:25:26;;;;;;;69.85;37.53;;;;;;;2.90;74.90;95865.21;1791565;78;25698;-85
2021/11/26 05:27:53;;;;;;;65.25;36.00;;;;;;;2.94;74.85;95854.98;1791802;79;26700;-85
2021/11/26 05:30:21;;;;;;;64.75;35.85;;;;;;;2.94;74.83;95858.16;1791755;78;25729;-85
2021/11/26 05:32:49;;;;;;;65.70;36.73;;;;;;;2.94;74.93;95857.64;1791693;78;27451;-85
2021/11/26 05:35:17;;;;;;;57.98;33.00;;;;;;;2.98;74.96;95852.74;1791667;80;25735;-85
2021/11/26 05:37:46;;;;;;;56.75;32.80;;;;;;;3.01;74.99;95846.50;1791585;78;25735;-85
2021/11/26 05:40:14;;;;;;;56.68;34.08;;;;;;;3.04;75.04;95842.08;1791660;78;26047;-84
2021/11/26 05:42:42;;;;;;;64.50;34.20;;;;;;;3.01;74.97;95841.17;1791640;78;25796;-84
2021/11/26 05:45:11;;;;;;;67.40;34.60;;;;;;;3.00;75.02;95834.20;1791674;78;28073;-84
2021/11/26 05:47:38;;;;;;;60.43;33.83;;;;;;;3.05;75.04;95821.57;1791445;80;25811;-85
2021/11/26 05:50:08;;;;;;;65.95;35.92;;;;;;;2.98;75.05;95830.91;1791815;78;25827;-84
2021/11/26 05:52:36;;;;;;;70.35;39.70;;;;;;;2.94;75.14;95837.66;1791743;78;26797;-84
2021/11/26 05:55:07;;;;;;;71.07;42.35;;;;;;;2.93;75.27;95833.85;1791686;78;25656;-85
2021/11/26 05:57:34;;;;;;;74.58;41.58;;;;;;;2.97;75.31;95841.77;1791485;80;27412;-84
2021/11/26 06:00:01;;;;;;;71.53;39.55;;;;;;;2.96;75.30;95838.79;1791580;78;25676;-84
2021/11/26 06:02:27;;;;;;;70.78;40.85;;;;;;;2.93;75.33;95835.19;1791812;78;26343;-84
2021/11/26 06:04:54;;;;;;;71.15;41.48;;;;;;;2.92;75.41;95831.70;1791840;79;26166;-84
2021/11/26 06:07:20;;;;;;;76.02;43.58;;;;;;;2.93;75.48;95837.85;1791711;78;26283;-84
2021/11/26 06:09:47;;;;;;;74.03;43.65;;;;;;;2.94;75.54;95848.83;1791714;78;27333;-84
2021/11/26 06:12:13;;;;;;;77.67;43.68;;;;;;;2.95;75.57;95840.63;1791523;79;25776;-84
2021/11/26 06:14:40;;;;;;;84.35;47.40;;;;;;;2.97;75.57;95831.11;1791721;80;25770;-84
2021/11/26 06:17:07;;;;;;;77.82;43.65;;;;;;;3.01;75.54;95837.17;1791812;78;26656;-84
2021/11/26 06:19:34;;;;;;;80.35;44.55;;;;;;;3.02;75.55;95830.79;1794052;79;25697;-85
2021/11/26 06:22:00;;;;;;;87.25;44.35;;;;;;;3.02;75.52;95828.12;1741654;82;27588;-85
2021/11/26 06:24:27;;;;;;;76.62;42.62;;;;;;;3.02;75.50;95828.12;1737639;82;25744;-84
2021/11/26 06:26:54;;;;;;;78.07;43.42;;;;;;;3.04;75.52;95820.75;1737522;81;25896;-84
2021/11/26 06:29:20;;;;;;;79.42;44.08;;;;;;;3.04;75.48;95810.09;1737655;82;26644;-84
2021/11/26 06:31:47;;;;;;;83.58;46.65;;;;;;;3.06;75.56;95812.05;1733361;81;25422;-83
2021/11/26 06:34:13;;;;;;;83.03;45.60;;;;;;;3.09;75.60;95807.65;1720566;82;28097;-84
2021/11/26 06:36:40;;;;;;;79.15;42.80;;;;;;;3.12;75.53;95807.25;1725400;82;26361;-85
2021/11/26 06:39:07;;;;;;;73.22;41.77;;;;;;;3.11;75.55;95808.27;1733293;82;25857;-84
2021/11/26 06:41:33;;;;;;;78.47;40.88;;;;;;;3.12;75.57;95799.77;1733154;81;26020;-85
2021/11/26 06:44:00;;;;;;;71.25;39.88;;;;;;;3.13;75.64;95792.07;1733304;81;25764;-85
2021/11/26 06:46:26;;;;;;;83.97;44.25;;;;;;;3.14;75.61;95797.17;1733135;81;27435;-85
2021/11/26 06:48:53;;;;;;;79.20;42.83;;;;;;;3.13;75.68;95798.23;1733093;81;26285;-85
2021/11/26 06:51:20;;;;;;;76.35;41.42;;;;;;;3.15;75.73;95784.66;1733181;82;25676;-85
2021/11/26 06:53:46;;;;;;;79.82;44.38;;;;;;;3.16;75.75;95785.80;1733223;81;26024;-85
2021/11/26 06:56:13;;;;;;;77.87;44.80;;;;;;;3.17;75.79;95776.78;1733305;81;25708;-84
2021/11/26 06:58:39;;;;;;;81.70;43.42;;;;;;;3.19;75.92;95774.73;1732866;81;27437;-84
2021/11/26 07:01:06;;;;;;;85.25;47.10;;;;;;;3.23;75.95;95761.30;1733112;81;25764;-84
2021/11/26 07:03:32;;;;;;;83.78;47.78;;;;;;;3.20;76.00;95753.71;1733108;82;26024;-85
2021/11/26 07:05:59;;;;;;;89.75;47.55;;;;;;;3.11;76.00;95744.28;1733152;82;26181;-84
2021/11/26 07:08:26;;;;;;;90.95;46.65;;;;;;;3.13;76.13;95743.57;1733183;81;25654;-84
2021/11/26 07:10:53;;;;;;;113.75;64.85;;;;;;;3.14;76.22;95746.52;1733277;81;27388;-85
2021/11/26 07:13:19;;;;;;;118.90;67.65;;;;;;;3.15;76.31;95746.00;1733117;81;25860;-85
2021/11/26 07:15:47;;;;;;;141.75;76.72;;;;;;;3.22;76.29;95745.51;1733125;81;25690;-85
2021/11/26 07:18:14;;;;;;;158.32;84.28;;;;;;;3.26;76.26;95743.54;1737005;80;26064;-85
2021/11/26 07:20:41;;;;;;;171.87;91.60;;;;;;;3.30;76.24;95743.95;1754343;80;25793;-84
2021/11/26 07:23:08;;;;;;;177.17;92.50;;;;;;;3.34;76.23;95743.04;1742823;80;27531;-85
2021/11/26 07:25:35;;;;;;;163.62;86.28;;;;;;;3.32;76.20;95741.91;1745178;81;25672;-85
2021/11/26 07:28:01;;;;;;;165.10;84.55;;;;;;;3.32;76.23;95751.23;1754465;80;25696;-86
2021/11/26 07:30:28;;;;;;;144.95;77.42;;;;;;;3.35;76.26;95742.84;1754385;80;26064;-85
2021/11/26 07:32:54;;;;;;;141.35;73.90;;;;;;;3.40;76.31;95740.86;1754439;80;25751;-85
2021/11/26 07:35:21;;;;;;;137.57;70.60;;;;;;;3.44;76.34;95740.77;1754380;80;27311;-85
2021/11/26 07:37:48;;;;;;;139.47;72.67;;;;;;;3.42;76.38;95726.81;1754330;80;25988;-85
2021/11/26 07:40:15;;;;;;;131.15;69.27;;;;;;;3.44;76.41;95720.25;1754655;80;25771;-84
2021/11/26 07:42:43;;;;;;;124.97;66.07;;;;;;;3.48;76.45;95705.98;1754458;80;26059;-85
2021/11/26 07:45:11;;;;;;;124.38;65.47;;;;;;;3.47;76.41;95711.02;1754506;80;25955;-85
2021/11/26 07:47:39;;;;;;;118.45;63.08;;;;;;;3.47;76.39;95713.69;1737048;80;27431;-85
2021/11/26 07:50:08;;;;;;;116.65;62.93;;;;;;;3.45;76.46;95702.39;1751120;81;25817;-85
2021/11/26 07:52:41;;;;;;;114.95;62.93;;;;;;;3.48;76.55;95708.66;1754622;80;25719;-85
2021/11/26 07:55:08;;;;;;;105.27;57.17;;;;;;;3.52;76.52;95713.86;1754665;81;26114;-84
2021/11/26 07:57:36;;;;;;;106.97;56.25;;;;;;;3.55;76.58;95714.78;1754637;80;25723;-84
2021/11/26 08:00:05;;;;;;;101.87;55.55;;;;;;;3.59;76.58;95718.17;1754466;80;28079;-84
2021/11/26 08:02:32;;;;;;;102.17;55.55;;;;;;;3.62;76.57;95719.61;1754335;80;25779;-84
2021/11/26 08:04:58;;;;;;;108.90;56.60;;;;;;;3.64;76.57;95718.86;1754372;80;26420;-84
2021/11/26 08:07:25;;;;;;;112.80;58.78;;;;;;;3.64;76.64;95721.53;1754560;81;26456;-84
2021/11/26 08:09:51;;;;;;;113.60;58.85;;;;;;;3.64;76.57;95718.86;1754652;80;25772;-84
2021/11/26 08:12:19;;;;;;;109.63;58.90;;;;;;;3.68;76.62;95717.42;1754443;80;27402;-84
2021/11/26 08:14:51;;;;;;;106.27;58.25;;;;;;;3.73;76.68;95715.47;1754385;80;25843;-84
2021/11/26 08:17:17;;;;;;;111.70;59.05;;;;;;;3.75;76.73;95714.20;1754421;80;26286;-84
2021/11/26 08:19:44;;;;;;;107.50;58.95;;;;;;;3.80;76.83;95703.73;1752026;79;26032;-84
2021/11/26 08:22:17;;;;;;;110.15;57.90;;;;;;;3.88;76.82;95701.34;1794830;78;25756;-85
2021/11/26 08:24:39;;;;;;;112.80;58.05;;;;;;;3.94;76.71;95698.66;1776888;79;27546;-85
2021/11/26 08:27:06;;;;;;;115.55;60.80;;;;;;;3.94;76.53;95693.32;1791805;78;25831;-85
2021/11/26 08:29:32;;;;;;;111.25;60.23;;;;;;;3.91;76.45;95695.07;1791735;80;25855;-84
2021/11/26 08:31:59;;;;;;;108.37;58.73;;;;;;;3.95;76.61;95693.63;1791791;78;25926;-84
2021/11/26 08:34:27;;;;;;;104.20;57.33;;;;;;;3.99;76.61;95689.48;1791788;78;25692;-85
2021/11/26 08:36:53;;;;;;;112.88;59.30;;;;;;;4.05;76.60;95687.01;1791718;78;27353;-85
2021/11/26 08:39:20;;;;;;;114.75;61.05;;;;;;;4.10;76.62;95684.53;1791663;78;25686;-84
2021/11/26 08:41:47;;;;;;;118.40;61.83;;;;;;;4.15;76.60;95679.36;1791900;78;25686;-85
2021/11/26 08:44:13;;;;;;;118.33;60.55;;;;;;;4.20;76.52;95678.22;1791749;78;26025;-85
2021/11/26 08:46:40;;;;;;;108.22;60.40;;;;;;;4.24;76.41;95672.21;1791752;78;25618;-85
2021/11/26 08:49:07;;;;;;;115.55;60.05;;;;;;;4.25;76.32;95675.70;1791744;78;28146;-85
2021/11/26 08:51:39;;;;;;;99.32;53.80;;;;;;;4.27;76.22;95691.00;1791322;78;25747;-85
2021/11/26 08:54:03;;;;;;;88.72;51.23;;;;;;;4.30;76.21;95690.06;1789405;80;25761;-84
2021/11/26 08:56:30;;;;;;;92.05;51.85;;;;;;;4.29;76.10;95688.94;1791903;78;26136;-85
2021/11/26 08:59:01;;;;;;;96.63;51.40;;;;;;;4.33;76.11;95689.65;1789314;78;25740;-85
2021/11/26 09:01:33;;;;;;;92.80;52.62;;;;;;;4.38;76.07;95676.97;1791464;78;27513;-84
2021/11/26 09:04:00;;;;;;;93.40;51.85;;;;;;;4.38;76.02;95669.47;1791809;80;25725;-84
2021/11/26 09:06:27;;;;;;;91.08;49.98;;;;;;;4.41;75.96;95671.20;1791816;78;25370;-85
2021/11/26 09:08:54;;;;;;;87.90;49.98;;;;;;;4.44;75.99;95669.45;1791748;78;25970;-84
2021/11/26 09:11:21;;;;;;;86.02;48.23;;;;;;;4.51;76.02;95672.88;1791895;80;26299;-85
2021/11/26 09:13:47;;;;;;;85.90;47.73;;;;;;;4.57;75.86;95670.70;1791703;79;27422;-84
2021/11/26 09:16:15;;;;;;;91.37;49.15;;;;;;;4.61;75.71;95657.70;1791715;78;25527;-84
2021/11/26 09:18:42;;;;;;;84.32;47.75;;;;;;;4.63;75.56;95653.78;1791730;79;25240;-85
2021/11/26 09:21:09;;;;;;;85.12;49.18;;;;;;;4.61;75.43;95644.34;1794592;78;26026;-84
2021/11/26 09:23:36;;;;;;;87.70;49.93;;;;;;;4.62;75.44;95641.45;1741736;80;25679;-84
2021/11/26 09:26:03;;;;;;;81.45;47.10;;;;;;;4.68;75.42;95637.92;1737789;81;27424;-85
2021/11/26 09:28:29;;;;;;;85.85;47.38;;;;;;;4.73;75.23;95639.92;1737747;81;25804;-85
2021/11/26 09:30:56;;;;;;;79.35;45.90;;;;;;;4.71;75.20;95636.13;1737829;81;25771;-85
2021/11/26 09:33:23;;;;;;;87.10;49.10;;;;;;;4.75;75.20;95635.19;1737631;81;26048;-85
2021/11/26 09:35:50;;;;;;;89.32;53.38;;;;;;;4.80;75.23;95631.36;1737702;81;25804;-84
2021/11/26 09:38:17;;;;;;;86.37;49.75;;;;;;;4.85;75.17;95625.33;1737890;81;28307;-85
2021/11/26 09:40:45;;;;;;;82.08;47.40;;;;;;;4.87;75.11;95622.75;1733066;81;25778;-84
2021/11/26 09:43:13;;;;;;;88.90;48.48;;;;;;;4.91;74.97;95617.79;1733259;81;26595;-85
2021/11/26 09:45:39;;;;;;;82.95;47.53;;;;;;;4.91;74.82;95615.94;1733383;81;26053;-85
2021/11/26 09:48:06;;;;;;;87.60;48.10;;;;;;;4.91;74.74;95601.23;1733422;81;25781;-84
2021/11/26 09:50:33;;;;;;;84.30;49.95;;;;;;;4.93;74.76;95596.48;1733254;81;27453;-84
2021/11/26 09:53:21;;;;;;;85.85;48.13;;;;;;;4.94;74.73;95590.63;1732968;81;25830;-85
2021/11/26 09:55:58;;;;;;;85.72;47.75;;;;;;;4.96;74.64;95585.84;1733286;81;25827;-84
2021/11/26 09:58:28;;;;;;;80.53;46.48;;;;;;;4.94;74.52;95577.25;1733255;81;26155;-84
2021/11/26 10:00:56;;;;;;;86.10;47.98;;;;;;;4.89;74.47;95573.07;1733317;81;25795;-84
2021/11/26 10:03:36;;;;;;;85.75;47.83;;;;;;;4.85;74.52;95562.51;1733349;82;27527;-85
2021/11/26 10:06:02;;;;;;;84.72;46.98;;;;;;;4.88;74.69;95551.38;1733222;82;25780;-84
2021/11/26 10:08:29;;;;;;;80.62;46.77;;;;;;;4.89;74.89;95540.99;1733349;82;26337;-84
2021/11/26 10:11:01;;;;;;;83.58;48.23;;;;;;;4.91;74.70;95540.25;1733203;81;25968;-84
2021/11/26 10:13:32;;;;;;;;;;;;;;;4.92;74.66;95539.22;1735993;82;25827;-84
2021/11/26 10:16:09;;;;;;;84.50;47.90;;;;;;;4.94;74.61;95521.11;1733274;81;27596;-84
2021/11/26 10:18:35;;;;;;;81.92;47.78;;;;;;;4.95;74.62;95526.20;1733209;81;25812;-84
2021/11/26 10:21:07;;;;;;;88.05;49.93;;;;;;;4.95;74.59;95519.52;1748330;80;25846;-85
2021/11/26 10:23:42;;;;;;;82.25;47.78;;;;;;;4.99;74.61;95501.19;1794925;78;26194;-84
2021/11/26 10:26:20;;;;;;;83.78;46.35;;;;;;;5.02;74.48;95491.39;1778367;80;25795;-84
2021/11/26 10:28:52;;;;;;;83.27;45.55;;;;;;;5.06;74.52;95481.37;1791692;78;27596;-84
2021/11/26 10:31:29;;;;;;;78.33;45.58;;;;;;;5.03;74.43;95478.31;1791692;78;25729;-84
2021/11/26 10:34:03;;;;;;;81.08;44.95;;;;;;;5.06;74.46;95478.70;1791631;79;25696;-85
2021/11/26 10:36:47;;;;;;;81.32;47.25;;;;;;;5.13;74.48;95469.24;1791704;78;25926;-84
2021/11/26 10:39:20;;;;;;;81.87;47.38;;;;;;;5.18;74.43;95460.04;1777569;79;25748;-84
2021/11/26 10:41:53;;;;;;;82.90;49.18;;;;;;;5.24;74.36;95455.11;1791729;79;28120;-84
2021/11/26 10:44:24;;;;;;;91.70;50.67;;;;;;;5.25;74.36;95452.73;1791348;78;25906;-84
2021/11/26 10:59:49;;;;;;;96.00;53.90;;;;;;;5.50;74.25;95404.44;1819739;77;25792;-84
2021/11/26 11:02:29;;;;;;;87.75;47.85;;;;;;;5.54;74.14;95399.45;1818680;78;26045;-85
2021/11/26 11:04:56;;;;;;;82.47;45.23;;;;;;;5.52;73.91;95395.67;1818323;78;25762;-85
2021/11/26 11:07:23;;;;;;;77.25;44.00;;;;;;;5.55;73.92;95394.41;1823794;77;27318;-84
2021/11/26 11:09:56;;;;;;;81.08;44.70;;;;;;;5.56;73.86;95378.61;1819746;77;25904;-84
2021/11/26 11:12:33;;;;;;;80.38;43.70;;;;;;;5.59;73.84;95380.31;1819924;77;25878;-84
2021/11/26 11:15:03;;;;;;;78.20;44.10;;;;;;;5.60;73.77;95376.59;1819965;77;26696;-85
2021/11/26 11:17:32;;;;;;;83.62;43.50;;;;;;;5.62;73.69;95369.16;1820139;77;25680;-84
2021/11/26 11:20:12;;;;;;;80.55;45.50;;;;;;;5.63;73.72;95363.28;1819896;77;28056;-84
2021/11/26 11:22:39;;;;;;;90.97;50.67;;;;;;;5.64;73.67;95353.69;1778437;80;25698;-84
2021/11/26 11:25:10;;;;;;;90.72;50.83;;;;;;;5.65;73.75;95357.18;1791836;78;25813;-83
2021/11/26 11:27:37;;;;;;;97.22;52.25;;;;;;;5.63;73.61;95348.56;1791835;78;26584;-84
2021/11/26 11:30:08;;;;;;;94.10;53.35;;;;;;;5.64;73.73;95342.98;1791946;78;25706;-85
2021/11/26 11:32:36;;;;;;;92.25;52.17;;;;;;;5.69;73.69;95337.73;1791951;78;28197;-84
2021/11/26 11:35:09;;;;;;;91.42;50.78;;;;;;;5.69;73.46;95328.89;1791791;78;25718;-84
2021/11/26 11:37:38;;;;;;;91.97;52.62;;;;;;;5.59;73.42;95325.45;1791793;78;25831;-84
2021/11/26 11:40:08;;;;;;;94.45;51.45;;;;;;;5.59;73.52;95321.95;1791797;78;26024;-84